Time;durP1;ratioP1;P1;durP2;ratioP2;P2;SDS_P1;SDS_P2;PMS_P1;PMS_P2;Temp;Humidity;BMP_temperature;BMP_pressure;BME280_temperature;BME280_humidity;BME280_pressure;Samples;Min_cycle;Max_cycle;Signal;HPM_P1;HPM_P2
2022/03/30 00:01:10;;;;;;;30.45;15.80;;;;;;;3.56;100.00;100891.84;2601330;54;20332;31
2022/03/30 00:09:02;;;;;;;31.67;16.48;;;;;;;3.56;100.00;100899.84;2605641;39;20389;31
2022/03/30 00:11:38;;;;;;;31.48;16.02;;;;;;;3.50;100.00;100898.38;2602050;39;20365;31
2022/03/30 00:14:15;;;;;;;33.90;17.00;;;;;;;3.51;100.00;100889.47;2607072;39;20272;31
2022/03/30 00:19:31;;;;;;;35.70;17.40;;;;;;;3.48;100.00;100901.13;2600570;54;20957;31
2022/03/30 00:22:07;;;;;;;33.47;17.10;;;;;;;3.41;100.00;100889.13;2599832;47;20036;31
2022/03/30 00:27:24;;;;;;;33.30;17.25;;;;;;;3.31;100.00;100891.50;2602589;31;20331;31
2022/03/30 00:30:03;;;;;;;34.60;16.15;;;;;;;3.28;100.00;100888.13;2600672;54;20896;31
2022/03/30 00:37:53;;;;;;;34.55;17.20;;;;;;;3.04;100.00;100901.88;2600805;54;21360;31
2022/03/30 00:40:30;;;;;;;34.05;16.23;;;;;;;3.05;100.00;100898.28;2600708;47;20038;31
2022/03/30 00:48:21;;;;;;;37.70;16.30;;;;;;;3.05;100.00;100887.66;2600250;54;20053;31
2022/03/30 00:53:37;;;;;;;30.95;16.73;;;;;;;2.90;100.00;100893.81;2600244;54;21418;31
2022/03/30 00:59:16;;;;;;;37.50;16.63;;;;;;;2.99;100.00;100888.00;2600596;54;20941;31
2022/03/30 01:01:54;;;;;;;44.55;17.90;;;;;;;3.01;100.00;100887.91;2600398;47;20030;31
2022/03/30 01:07:06;;;;;;;35.50;17.05;;;;;;;3.14;100.00;100880.97;2599755;54;20321;31
2022/03/30 01:12:15;;;;;;;36.55;17.30;;;;;;;3.07;100.00;100874.28;2604814;39;21348;31
2022/03/30 01:25:09;;;;;;;31.80;17.20;;;;;;;2.89;100.00;100862.88;2602484;31;21483;31
2022/03/30 01:27:46;;;;;;;39.13;17.25;;;;;;;2.77;100.00;100867.09;2599504;47;21073;31
2022/03/30 01:33:12;;;;;;;40.92;18.23;;;;;;;2.58;100.00;100852.16;2599474;47;20441;31
2022/03/30 01:35:48;;;;;;;40.00;17.83;;;;;;;2.52;100.00;100851.63;2602582;54;20038;31
2022/03/30 01:43:40;;;;;;;39.63;17.33;;;;;;;2.51;100.00;100839.31;2599000;54;20030;31
2022/03/30 01:46:18;;;;;;;40.53;18.58;;;;;;;2.48;100.00;100842.97;2599632;54;19951;31
2022/03/30 01:51:28;;;;;;;41.53;17.90;;;;;;;2.37;100.00;100837.38;2599364;54;20390;31
2022/03/30 01:56:40;;;;;;;40.05;19.52;;;;;;;2.30;100.00;100828.91;2599065;54;20118;31
2022/03/30 01:59:19;;;;;;;35.23;18.57;;;;;;;2.29;100.00;100827.19;2605788;39;20778;31
2022/03/30 02:09:44;;;;;;;33.83;16.77;;;;;;;2.15;100.00;100816.47;2599340;54;20712;31
2022/03/30 02:14:57;;;;;;;38.30;19.50;;;;;;;2.14;100.00;100814.75;2599787;54;20099;31
2022/03/30 02:17:32;;;;;;;40.53;18.45;;;;;;;2.13;100.00;100813.88;2599909;47;20957;31
2022/03/30 02:20:11;;;;;;;47.97;20.75;;;;;;;1.95;100.00;100810.44;2604687;39;20294;31
2022/03/30 02:28:00;;;;;;;;;;;;;;;1.96;100.00;100806.84;2600283;54;20469;31
2022/03/30 02:33:28;;;;;;;42.00;20.33;;;;;;;1.85;100.00;100795.94;2604624;39;21236;31
2022/03/30 02:36:07;;;;;;;46.13;20.50;;;;;;;1.79;100.00;100794.47;2599879;47;20038;31
2022/03/30 02:43:51;;;;;;;41.30;19.10;;;;;;;1.79;100.00;100767.06;2602661;54;20057;31
2022/03/30 02:46:27;;;;;;;43.90;19.30;;;;;;;1.79;100.00;100767.06;2603661;39;20363;31
2022/03/30 02:49:03;;;;;;;39.30;19.42;;;;;;;1.83;100.00;100771.28;2600734;46;20398;31
2022/03/30 02:59:26;;;;;;;;;;;;;;;1.77;100.00;100760.97;2599655;54;20413;31
2022/03/30 03:02:08;;;;;;;43.85;20.05;;;;;;;1.75;100.00;100758.41;2600646;46;20797;31
2022/03/30 03:09:56;;;;;;;;;;;;;;;1.45;100.00;100753.78;2599807;54;20730;31
2022/03/30 03:12:32;;;;;;;43.00;18.95;;;;;;;1.51;100.00;100752.63;2600685;47;20005;31
2022/03/30 03:20:23;;;;;;;40.60;19.35;;;;;;;1.47;100.00;100745.75;2599180;54;20658;31
2022/03/30 03:25:33;;;;;;;38.50;17.77;;;;;;;1.50;100.00;100741.16;2600043;54;20289;31
2022/03/30 03:30:42;;;;;;;38.50;17.98;;;;;;;1.48;100.00;100750.13;2599833;54;20105;31
2022/03/30 03:35:53;;;;;;;35.20;17.70;;;;;;;1.33;100.00;100739.38;2599558;54;20896;31
2022/03/30 03:41:03;;;;;;;36.10;17.60;;;;;;;1.38;100.00;100737.34;2599551;54;20042;31
2022/03/30 03:46:26;;;;;;;36.70;18.70;;;;;;;1.41;100.00;100728.38;2599782;54;20070;31
2022/03/30 03:49:01;;;;;;;35.38;17.85;;;;;;;1.21;100.00;100729.41;2599981;47;20980;31
2022/03/30 04:02:01;;;;;;;37.30;19.20;;;;;;;1.09;100.00;100715.00;2597503;39;20826;31
2022/03/30 04:07:10;;;;;;;39.50;18.55;;;;;;;1.07;100.00;100727.47;2597142;54;20929;31
2022/03/30 04:12:19;;;;;;;39.13;18.23;;;;;;;1.03;100.00;100716.19;2597434;54;20473;31
2022/03/30 04:14:56;;;;;;;38.58;19.20;;;;;;;0.93;100.00;100714.94;2597806;54;20038;31
2022/03/30 04:25:23;;;;;;;44.50;19.60;;;;;;;0.94;100.00;100716.63;2601694;39;20338;31
2022/03/30 04:30:33;;;;;;;41.40;18.85;;;;;;;1.02;100.00;100708.31;2599468;54;20317;31
2022/03/30 04:33:09;;;;;;;42.13;19.10;;;;;;;1.05;100.00;100702.84;2600119;39;20202;31
2022/03/30 04:35:46;;;;;;;43.80;20.40;;;;;;;0.96;100.00;100698.88;2597646;54;20799;31
2022/03/30 04:38:23;;;;;;;38.42;18.67;;;;;;;0.92;100.00;100696.47;2599572;47;20042;31
2022/03/30 04:41:02;;;;;;;38.92;18.98;;;;;;;0.87;100.00;100688.75;2599660;54;21348;31
2022/03/30 04:46:12;;;;;;;45.90;19.60;;;;;;;0.95;100.00;100696.31;2599872;54;20037;31
2022/03/30 04:48:48;;;;;;;37.78;19.08;;;;;;;1.05;100.00;100692.25;2600883;39;20396;31
2022/03/30 04:53:58;;;;;;;40.83;18.42;;;;;;;1.08;100.00;100691.22;2599152;54;21172;31
2022/03/30 04:56:36;;;;;;;38.05;19.77;;;;;;;1.32;100.00;100700.53;2600231;47;21399;31
2022/03/30 05:01:51;;;;;;;42.80;19.73;;;;;;;1.56;100.00;100698.38;2599167;54;20522;31
2022/03/30 05:04:33;;;;;;;36.80;18.73;;;;;;;1.65;100.00;100699.69;2599822;54;20139;31
2022/03/30 05:07:16;;;;;;;41.88;19.15;;;;;;;1.67;100.00;100699.59;2601902;47;20034;31
2022/03/30 05:09:53;;;;;;;39.95;18.67;;;;;;;1.85;100.00;100697.75;2597640;47;20101;31
2022/03/30 05:17:36;;;;;;;40.80;19.40;;;;;;;1.71;100.00;100691.41;2598958;54;20537;31
2022/03/30 05:20:13;;;;;;;42.40;19.50;;;;;;;1.90;100.00;100680.63;2599961;54;20907;31
2022/03/30 05:22:48;;;;;;;37.38;18.85;;;;;;;2.02;100.00;100687.06;2599882;39;20326;31
2022/03/30 05:27:57;;;;;;;44.23;19.87;;;;;;;1.90;100.00;100670.00;2606899;54;20131;31
2022/03/30 05:30:35;;;;;;;41.45;19.60;;;;;;;1.88;100.00;100674.53;2604130;39;20150;31
2022/03/30 05:33:14;;;;;;;42.65;21.20;;;;;;;1.95;100.00;100682.19;2602843;39;20139;31
2022/03/30 05:48:48;;;;;;;35.53;19.48;;;;;;;2.73;100.00;100672.38;2604435;54;20046;31
2022/03/30 05:51:26;;;;;;;38.40;19.23;;;;;;;2.68;100.00;100661.19;2601560;47;20034;31
2022/03/30 06:04:21;;;;;;;41.13;19.67;;;;;;;3.15;100.00;100676.09;2602324;54;20129;31
2022/03/30 06:07:03;;;;;;;45.00;20.00;;;;;;;3.20;100.00;100677.63;2612423;46;20014;31
2022/03/30 06:17:20;;;;;;;49.10;19.80;;;;;;;3.78;100.00;100676.66;2599830;54;20541;31
2022/03/30 06:25:09;;;;;;;41.67;20.33;;;;;;;4.04;100.00;100671.47;2600591;54;20107;31
2022/03/30 06:27:45;;;;;;;41.42;20.02;;;;;;;4.08;100.00;100670.34;2601423;47;20394;31
2022/03/30 06:43:21;;;;;;;40.78;20.02;;;;;;;4.93;100.00;100677.22;2600106;54;20042;31
2022/03/30 06:51:02;;;;;;;42.72;19.13;;;;;;;5.44;100.00;100675.41;2605709;39;20867;31
2022/03/30 06:56:14;;;;;;;35.90;19.25;;;;;;;5.73;100.00;100674.34;2601119;54;20030;31
2022/03/30 06:58:52;;;;;;;37.10;20.17;;;;;;;5.85;100.00;100683.28;2606345;39;20837;31
2022/03/30 07:04:04;;;;;;;37.20;20.00;;;;;;;6.13;100.00;100676.84;2601013;54;20038;31
2022/03/30 07:10:14;;;;;;;41.35;19.60;;;;;;;6.18;100.00;100677.34;2619849;36;20422;31
2022/03/30 07:17:26;;;;;;;38.70;19.30;;;;;;;6.23;100.00;100669.84;2599536;54;21111;31
2022/03/30 07:22:36;;;;;;;40.83;19.55;;;;;;;6.24;100.00;100673.38;2600429;54;20037;31
2022/03/30 07:25:13;;;;;;;38.33;18.27;;;;;;;6.28;100.00;100678.38;2600776;47;20046;31
2022/03/30 07:30:29;;;;;;;36.97;17.63;;;;;;;6.80;100.00;100656.72;2598419;54;20093;31
2022/03/30 07:33:07;;;;;;;35.90;16.50;;;;;;;6.54;100.00;100656.88;2600748;47;20276;31
2022/03/30 07:41:00;;;;;;;25.73;12.30;;;;;;;6.80;100.00;100654.03;2605786;39;20358;31
2022/03/30 07:43:36;;;;;;;20.45;10.45;;;;;;;6.53;100.00;100651.66;2600389;46;20654;31
2022/03/30 07:46:14;;;;;;;19.00;10.50;;;;;;;6.61;100.00;100642.09;2601039;54;20041;31
2022/03/30 07:51:38;;;;;;;23.60;11.13;;;;;;;6.53;100.00;100655.16;2606396;39;20971;31
2022/03/30 07:56:48;;;;;;;27.20;12.60;;;;;;;6.43;100.00;100659.50;2600056;54;20670;31
2022/03/30 07:59:25;;;;;;;28.38;13.00;;;;;;;6.45;100.00;100653.06;2600249;47;20061;31
2022/03/30 08:02:01;;;;;;;28.67;13.25;;;;;;;6.35;100.00;100656.56;2600278;47;20038;31
2022/03/30 08:04:43;;;;;;;33.47;13.27;;;;;;;6.42;100.00;100647.09;2619136;36;20045;31
2022/03/30 08:07:22;;;;;;;21.25;12.10;;;;;;;6.65;100.00;100653.38;2601258;54;20392;31
2022/03/30 08:15:18;;;;;;;17.40;9.85;;;;;;;7.41;100.00;100642.25;2599835;54;21307;31
2022/03/30 08:17:59;;;;;;;17.23;9.38;;;;;;;7.63;100.00;100638.72;2600276;54;20422;31
2022/03/30 08:28:43;;;;;;;7.15;3.80;;;;;;;7.70;100.00;100635.44;2599820;54;20050;31
2022/03/30 08:31:19;;;;;;;6.07;3.85;;;;;;;7.64;100.00;100624.34;2600351;47;20069;31
2022/03/30 08:33:56;;;;;;;7.18;3.65;;;;;;;7.96;100.00;100626.25;2600524;47;20488;31
2022/03/30 08:39:11;;;;;;;7.97;3.80;;;;;;;8.28;100.00;100612.88;2600558;54;20424;31
2022/03/30 08:41:49;;;;;;;5.15;3.60;;;;;;;8.80;100.00;100613.03;2601113;54;20448;31
2022/03/30 08:47:08;;;;;;;7.83;3.67;;;;;;;9.32;100.00;100607.69;2600043;54;20930;31
2022/03/30 08:49:47;;;;;;;5.78;3.78;;;;;;;9.14;100.00;100603.94;2599862;47;20375;31
2022/03/30 08:55:06;;;;;;;6.63;3.30;;;;;;;9.26;100.00;100605.53;2603079;39;20190;31
2022/03/30 09:00:20;;;;;;;8.45;3.50;;;;;;;9.73;100.00;100608.56;2599055;54;20806;31
2022/03/30 09:05:37;;;;;;;6.05;3.20;;;;;;;9.78;100.00;100619.75;2598435;54;20694;31
2022/03/30 09:08:16;;;;;;;6.10;3.40;;;;;;;9.63;100.00;100615.75;2599854;47;20050;31
2022/03/30 09:10:54;;;;;;;6.20;3.88;;;;;;;9.39;100.00;100613.38;2600173;47;20779;31
2022/03/30 09:13:31;;;;;;;6.13;2.80;;;;;;;9.61;100.00;100617.69;2604704;39;21258;31
2022/03/30 09:21:23;;;;;;;6.65;3.25;;;;;;;9.37;100.00;100620.72;2600969;54;20250;31
2022/03/30 09:24:07;;;;;;;8.85;3.45;;;;;;;9.18;100.00;100618.78;2600276;54;20050;31
2022/03/30 09:26:45;;;;;;;3.40;2.72;;;;;;;9.10;100.00;100614.94;2622458;36;20316;31
2022/03/30 09:34:33;;;;;;;3.85;2.45;;;;;;;9.46;100.00;100610.00;2600095;54;21305;31
2022/03/30 09:39:46;;;;;;;5.25;2.50;;;;;;;9.74;100.00;100602.19;2600063;54;20485;31
2022/03/30 09:42:22;;;;;;;3.60;2.00;;;;;;;9.67;100.00;100601.03;2600462;54;20061;31
2022/03/30 09:45:06;;;;;;;4.15;2.00;;;;;;;9.89;100.00;100601.81;2600676;54;20976;31
2022/03/30 09:47:42;;;;;;;3.65;2.35;;;;;;;10.05;100.00;100587.84;2598093;47;20323;31
2022/03/30 09:52:55;;;;;;;4.18;2.00;;;;;;;10.00;100.00;100588.25;2604621;39;20717;31
2022/03/30 09:58:09;;;;;;;3.40;2.00;;;;;;;9.70;100.00;100584.66;2600136;54;20823;31
2022/03/30 10:00:49;;;;;;;4.45;1.95;;;;;;;9.31;100.00;100595.25;2619054;36;20384;31
2022/03/30 10:03:26;;;;;;;2.80;1.83;;;;;;;9.13;100.00;100589.66;2601403;54;20418;31
2022/03/30 10:11:16;;;;;;;2.30;1.65;;;;;;;9.78;100.00;100592.03;2600374;54;20494;31
2022/03/30 10:24:18;;;;;;;4.75;2.03;;;;;;;9.35;100.00;100595.81;2604677;39;20320;31
2022/03/30 10:27:01;;;;;;;5.10;1.80;;;;;;;9.61;100.00;100596.22;2600999;54;20385;31
2022/03/30 10:37:26;;;;;;;2.40;1.40;;;;;;;9.70;100.00;100586.47;2600304;54;21191;31
2022/03/30 10:40:17;;;;;;;5.80;1.65;;;;;;;9.51;100.00;100585.44;2607101;39;20300;31
2022/03/30 10:43:13;;;;;;;2.30;1.38;;;;;;;9.51;100.00;100581.88;2619755;36;21248;31
2022/03/30 10:56:36;;;;;;;3.10;1.60;;;;;;;9.96;100.00;100578.75;2600082;39;20362;31
2022/03/30 10:59:18;;;;;;;3.25;1.55;;;;;;;10.07;100.00;100570.56;2600997;47;21379;31
2022/03/30 11:07:06;;;;;;;;;;;;;;;10.32;100.00;100557.53;2603644;39;20359;31
2022/03/30 11:12:53;;;;;;;3.13;1.60;;;;;;;10.26;100.00;100552.72;2600594;54;20046;31
2022/03/30 11:20:38;;;;;;;5.30;1.40;;;;;;;10.45;100.00;100538.47;2599734;54;20034;31
2022/03/30 11:23:21;;;;;;;2.00;1.63;;;;;;;10.45;100.00;100535.75;2600748;54;20375;31
2022/03/30 11:28:41;;;;;;;1.70;1.20;;;;;;;10.58;100.00;100530.09;2600158;54;20418;31
2022/03/30 11:31:21;;;;;;;2.40;1.60;;;;;;;10.42;100.00;100536.88;2600401;47;20046;31
2022/03/30 11:39:15;;;;;;;2.90;1.55;;;;;;;10.31;100.00;100523.59;2602283;39;20365;31
2022/03/30 11:47:19;;;;;;;3.13;1.60;;;;;;;10.38;100.00;100518.50;2600556;47;20073;31
2022/03/30 12:02:52;;;;;;;3.67;1.70;;;;;;;10.04;100.00;100503.63;2599791;54;20050;31
2022/03/30 12:05:28;;;;;;;5.57;1.63;;;;;;;10.45;100.00;100508.84;2600141;47;20090;31
2022/03/30 12:18:26;;;;;;;4.37;1.47;;;;;;;11.53;90.42;100485.91;2599748;54;20280;31
2022/03/30 12:28:44;;;;;;;3.88;1.40;;;;;;;11.62;87.16;100486.00;2603978;39;20290;31
2022/03/30 12:33:57;;;;;;;2.30;1.45;;;;;;;11.51;81.40;100484.34;2600081;54;20475;31
2022/03/30 12:36:41;;;;;;;3.95;1.58;;;;;;;11.68;83.49;100475.44;2600704;47;20073;31
2022/03/30 12:44:31;;;;;;;2.50;1.40;;;;;;;11.48;79.66;100463.94;2603918;39;20748;31
2022/03/30 12:47:17;;;;;;;3.47;1.60;;;;;;;11.55;77.32;100465.03;2604715;39;21001;31
2022/03/30 12:55:21;;;;;;;2.28;1.58;;;;;;;11.69;77.83;100449.31;2599548;54;20082;31
2022/03/30 13:00:31;;;;;;;8.90;1.90;;;;;;;11.73;77.89;100442.63;2599927;54;21675;31
2022/03/30 13:03:09;;;;;;;3.25;1.50;;;;;;;12.01;77.82;100440.72;2600243;47;21709;31
2022/03/30 13:05:45;;;;;;;3.75;2.00;;;;;;;12.12;80.50;100444.16;2600473;47;20409;31
2022/03/30 13:13:44;;;;;;;4.40;2.00;;;;;;;11.52;75.80;100419.53;2597198;54;20331;31
2022/03/30 13:19:13;;;;;;;2.97;2.03;;;;;;;11.73;76.85;100410.28;2597145;54;20053;31
2022/03/30 13:24:25;;;;;;;3.60;1.90;;;;;;;11.70;77.10;100413.28;2597451;54;20844;31
2022/03/30 13:27:04;;;;;;;4.03;2.25;;;;;;;11.62;79.37;100413.22;2597147;47;20411;31
2022/03/30 13:29:40;;;;;;;4.73;2.30;;;;;;;11.31;81.00;100402.81;2597496;47;20859;31
2022/03/30 13:32:17;;;;;;;3.80;1.95;;;;;;;11.36;87.55;100405.88;2598175;47;20034;31
2022/03/30 13:45:16;;;;;;;3.20;1.90;;;;;;;12.19;82.96;100391.28;2597100;54;20791;31
2022/03/30 13:50:27;;;;;;;4.28;1.90;;;;;;;11.90;71.08;100392.41;2597641;54;21086;31
2022/03/30 13:53:03;;;;;;;5.30;2.25;;;;;;;11.81;67.95;100388.78;2597605;47;21247;31
2022/03/30 14:00:54;;;;;;;3.97;1.90;;;;;;;11.73;66.66;100380.63;2598853;54;20377;31
2022/03/30 14:03:38;;;;;;;4.07;2.10;;;;;;;11.68;77.41;100378.41;2598673;47;20054;31
2022/03/30 14:06:14;;;;;;;3.60;1.90;;;;;;;11.71;67.98;100377.25;2598802;54;20038;31
2022/03/30 14:14:09;;;;;;;3.30;1.80;;;;;;;11.52;64.25;100365.63;2597348;54;20105;31
2022/03/30 14:16:50;;;;;;;5.35;2.10;;;;;;;11.38;69.06;100366.16;2616816;36;20267;31
2022/03/30 14:22:25;;;;;;;5.10;2.30;;;;;;;11.00;76.93;100365.44;2597566;54;21146;31
2022/03/30 14:30:11;;;;;;;4.72;2.15;;;;;;;11.30;79.23;100363.41;2598111;54;19997;31
2022/03/30 14:44:09;;;;;;;4.95;2.25;;;;;;;10.98;86.52;100353.97;2597692;39;21169;31
2022/03/30 15:46:03;;;;;;;4.68;3.22;;;;;;;9.55;100.00;100307.44;2601738;39;20314;31
2022/03/30 15:57:13;;;;;;;6.70;3.35;;;;;;;9.62;100.00;100302.34;2606684;39;21056;31
2022/03/30 16:22:24;;;;;;;4.93;2.95;;;;;;;9.07;100.00;100319.88;2601311;54;20835;31
2022/03/30 16:45:47;;;;;;;4.90;2.60;;;;;;;9.25;100.00;100300.41;2600126;54;21015;31
2022/03/30 16:50:59;;;;;;;4.50;2.58;;;;;;;9.18;100.00;100307.31;2600267;54;20412;31
2022/03/30 16:53:36;;;;;;;4.25;2.55;;;;;;;9.33;100.00;100303.22;2600406;47;20035;31
2022/03/30 16:56:11;;;;;;;5.00;2.53;;;;;;;9.21;100.00;100307.03;2600885;47;20404;31
2022/03/30 17:11:54;;;;;;;7.10;2.40;;;;;;;8.50;100.00;100300.84;2603460;47;20034;31
2022/03/30 17:24:58;;;;;;;5.80;2.40;;;;;;;8.15;100.00;100302.06;2599960;54;21254;31
2022/03/30 17:27:35;;;;;;;5.95;2.35;;;;;;;8.12;100.00;100314.91;2600071;47;20034;31
2022/03/30 17:32:46;;;;;;;7.28;2.38;;;;;;;8.02;100.00;100315.72;2602618;54;20030;31
2022/03/30 17:35:22;;;;;;;5.80;2.20;;;;;;;8.00;100.00;100315.00;2602344;47;20018;31
2022/03/30 17:40:40;;;;;;;6.23;2.73;;;;;;;7.83;100.00;100315.59;2605984;39;20290;31
2022/03/30 17:43:18;;;;;;;4.30;2.60;;;;;;;7.86;100.00;100315.31;2608886;47;20258;31
2022/03/30 17:56:34;;;;;;;3.90;2.40;;;;;;;7.56;100.00;100316.13;2600904;54;20935;31
2022/03/30 17:59:13;;;;;;;5.45;2.50;;;;;;;7.53;100.00;100317.25;2601646;47;20281;31
2022/03/30 18:17:24;;;;;;;3.95;2.40;;;;;;;7.10;100.00;100316.31;2602651;46;20895;31
2022/03/30 18:20:05;;;;;;;5.10;2.63;;;;;;;7.11;100.00;100320.72;2605029;47;20034;31
2022/03/30 18:41:00;;;;;;;4.87;2.30;;;;;;;6.96;100.00;100322.84;2601229;54;20038;31
2022/03/30 18:46:29;;;;;;;5.55;2.20;;;;;;;6.74;100.00;100323.69;2601021;54;25057;31
2022/03/30 18:54:12;;;;;;;5.80;2.10;;;;;;;6.63;100.00;100335.28;2600986;54;20444;31
2022/03/30 19:01:55;;;;;;;4.25;2.20;;;;;;;6.05;100.00;100340.78;2603831;54;20082;31
2022/03/30 19:14:49;;;;;;;7.95;2.78;;;;;;;5.78;100.00;100349.88;2605807;31;21413;31
2022/03/30 19:17:33;;;;;;;7.65;2.80;;;;;;;5.63;100.00;100340.41;2603005;39;20295;31
2022/03/30 19:20:12;;;;;;;4.47;2.10;;;;;;;5.49;100.00;100338.78;2602708;39;21369;31
2022/03/30 19:30:32;;;;;;;4.20;2.63;;;;;;;5.23;100.00;100333.59;2606324;31;20413;31
2022/03/30 19:33:08;;;;;;;7.30;2.30;;;;;;;5.31;100.00;100340.16;2601292;54;20038;31
2022/03/30 19:38:29;;;;;;;5.40;2.10;;;;;;;5.17;100.00;100350.06;2604869;39;20830;31
2022/03/30 19:41:10;;;;;;;7.15;2.33;;;;;;;5.01;100.00;100349.50;2598269;46;20463;31
2022/03/30 19:53:59;;;;;;;7.95;2.70;;;;;;;4.84;100.00;100354.22;2600491;39;20385;31
2022/03/30 19:59:26;;;;;;;8.02;2.58;;;;;;;4.83;100.00;100357.00;2601287;54;20034;31
2022/03/30 20:07:08;;;;;;;9.07;2.40;;;;;;;4.49;100.00;100365.63;2599471;54;20393;31
2022/03/30 20:09:44;;;;;;;5.25;2.40;;;;;;;4.59;100.00;100368.47;2600334;54;20460;31
2022/03/30 20:12:20;;;;;;;6.60;2.47;;;;;;;4.61;100.00;100368.34;2604811;31;25050;31
2022/03/30 20:14:59;;;;;;;4.60;2.50;;;;;;;4.47;100.00;100358.69;2600881;47;21663;31
2022/03/30 20:22:49;;;;;;;6.53;2.90;;;;;;;4.60;100.00;100358.69;2600133;54;20050;31
2022/03/30 20:25:26;;;;;;;4.47;2.58;;;;;;;4.59;100.00;100349.81;2600940;54;20042;31
2022/03/30 20:30:46;;;;;;;5.78;2.60;;;;;;;4.61;100.00;100357.69;2599771;54;20035;31
2022/03/30 20:33:21;;;;;;;12.95;3.05;;;;;;;4.55;100.00;100354.53;2600686;46;21241;31
2022/03/30 20:36:00;;;;;;;4.85;2.40;;;;;;;4.50;100.00;100356.66;2598283;46;20520;31
2022/03/30 20:46:27;;;;;;;3.83;2.72;;;;;;;4.32;100.00;100368.63;2599594;54;20417;31
2022/03/30 20:49:03;;;;;;;4.60;2.70;;;;;;;4.28;100.00;100367.13;2600190;47;21104;31
2022/03/30 20:51:42;;;;;;;4.97;2.65;;;;;;;4.33;100.00;100370.34;2600062;47;21219;31
2022/03/30 20:56:52;;;;;;;5.50;3.20;;;;;;;4.18;100.00;100364.25;2600028;54;20482;31
2022/03/30 20:59:28;;;;;;;6.78;3.58;;;;;;;4.22;100.00;100365.75;2600784;54;20101;31
2022/03/30 21:07:19;;;;;;;6.15;3.17;;;;;;;4.20;100.00;100365.03;2600514;54;20994;31
2022/03/30 21:12:32;;;;;;;6.47;3.30;;;;;;;4.03;100.00;100363.50;2600740;54;20100;31
2022/03/30 21:20:21;;;;;;;5.40;2.90;;;;;;;3.86;100.00;100370.03;2600974;54;20449;31
2022/03/30 21:23:07;;;;;;;4.67;2.90;;;;;;;3.86;100.00;100364.69;2605404;39;20401;31
2022/03/30 21:25:46;;;;;;;5.32;3.08;;;;;;;3.75;100.00;100362.75;2601471;47;20417;31
2022/03/30 21:31:03;;;;;;;8.52;3.10;;;;;;;3.88;100.00;100364.59;2604750;39;20358;31
2022/03/30 21:33:39;;;;;;;7.65;3.65;;;;;;;3.70;100.00;100361.38;2601149;54;20375;31
2022/03/30 21:36:17;;;;;;;5.18;2.53;;;;;;;3.66;100.00;100366.03;2601615;47;20370;31
2022/03/30 21:44:11;;;;;;;4.70;2.72;;;;;;;3.60;100.00;100358.47;2604723;39;20714;31
2022/03/30 21:46:49;;;;;;;4.20;2.70;;;;;;;3.57;100.00;100362.19;2617025;36;20387;31
2022/03/30 21:51:58;;;;;;;5.63;2.67;;;;;;;3.37;100.00;100355.53;2600528;54;20034;31
2022/03/30 22:02:21;;;;;;;4.80;2.53;;;;;;;3.28;100.00;100350.84;2600804;54;20034;31
2022/03/30 22:07:52;;;;;;;4.90;2.50;;;;;;;3.18;100.00;100358.59;2600516;54;20958;31
2022/03/30 22:10:30;;;;;;;7.22;2.95;;;;;;;3.20;100.00;100354.00;2598727;47;20038;31
2022/03/30 22:15:40;;;;;;;3.40;2.47;;;;;;;3.08;100.00;100350.34;2600323;54;20488;31
2022/03/30 22:18:20;;;;;;;5.53;2.37;;;;;;;3.04;100.00;100338.19;2601368;46;20470;31
2022/03/30 22:28:45;;;;;;;5.00;2.58;;;;;;;3.06;100.00;100352.28;2606817;31;20683;31
2022/03/30 22:39:22;;;;;;;4.80;2.40;;;;;;;2.93;100.00;100349.56;2603956;39;20295;31
2022/03/30 22:42:08;;;;;;;6.17;2.60;;;;;;;3.00;100.00;100349.97;2600448;47;20445;31
2022/03/30 22:44:48;;;;;;;3.75;2.70;;;;;;;2.94;100.00;100339.75;2620353;36;20496;31
2022/03/30 22:52:43;;;;;;;3.95;2.50;;;;;;;2.85;100.00;100335.88;2601016;54;20101;31
2022/03/30 22:55:21;;;;;;;3.80;2.60;;;;;;;2.70;100.00;100348.38;2600895;54;20046;31
2022/03/30 22:57:58;;;;;;;5.40;2.80;;;;;;;2.68;100.00;100344.97;2607004;31;20350;31
2022/03/30 23:08:25;;;;;;;3.58;2.30;;;;;;;2.42;100.00;100344.81;2600499;54;21629;31
2022/03/30 23:13:35;;;;;;;5.05;2.70;;;;;;;2.28;100.00;100344.81;2600701;54;20107;31
2022/03/30 23:18:45;;;;;;;5.18;2.40;;;;;;;2.28;100.00;100342.16;2600567;54;20034;31
2022/03/30 23:21:22;;;;;;;3.58;2.65;;;;;;;2.23;100.00;100344.25;2600804;54;20431;31
2022/03/30 23:24:02;;;;;;;5.75;2.72;;;;;;;2.27;100.00;100343.13;2603675;39;20251;31
2022/03/30 23:26:39;;;;;;;3.50;2.50;;;;;;;2.25;100.00;100345.00;2619700;36;20325;31
2022/03/30 23:29:16;;;;;;;5.10;2.77;;;;;;;2.24;100.00;100348.63;2601735;54;20438;31
2022/03/30 23:37:11;;;;;;;5.65;3.08;;;;;;;2.08;100.00;100330.97;2600095;54;20034;31
2022/03/30 23:39:50;;;;;;;6.18;3.13;;;;;;;1.98;100.00;100339.59;2601191;47;20084;31
2022/03/30 23:47:40;;;;;;;;;;;;;;;2.08;100.00;100338.94;2600745;54;20464;31
2022/03/30 23:50:17;;;;;;;4.45;2.75;;;;;;;1.98;100.00;100329.84;2601933;47;21482;31
2022/03/30 23:58:14;;;;;;;3.95;2.72;;;;;;;1.92;100.00;100349.63;2600814;54;21299;31
